sensor_id;sensor_type;location;lat;lon;timestamp;temperature;humidity
22145;DHT22;11238;48.730;11.566;2022-09-21T00:00:54;6.50;99.90
22145;DHT22;11238;48.730;11.566;2022-09-21T00:03:29;6.50;99.90
22145;DHT22;11238;48.730;11.566;2022-09-21T00:06:01;6.50;99.90
22145;DHT22;11238;48.730;11.566;2022-09-21T00:08:28;6.50;99.90
22145;DHT22;11238;48.730;11.566;2022-09-21T00:10:53;6.40;99.90
22145;DHT22;11238;48.730;11.566;2022-09-21T00:13:19;6.40;99.90
22145;DHT22;11238;48.730;11.566;2022-09-21T00:15:45;6.40;99.90
22145;DHT22;11238;48.730;11.566;2022-09-21T00:18:11;6.40;99.90
22145;DHT22;11238;48.730;11.566;2022-09-21T00:20:40;6.30;99.90
22145;DHT22;11238;48.730;11.566;2022-09-21T00:23:08;6.30;99.90
22145;DHT22;11238;48.730;11.566;2022-09-21T00:25:34;6.20;99.90
22145;DHT22;11238;48.730;11.566;2022-09-21T00:28:01;6.20;99.90
22145;DHT22;11238;48.730;11.566;2022-09-21T00:30:26;6.10;99.90
22145;DHT22;11238;48.730;11.566;2022-09-21T00:32:53;6.10;99.90
22145;DHT22;11238;48.730;11.566;2022-09-21T00:35:20;6.00;99.90
22145;DHT22;11238;48.730;11.566;2022-09-21T00:37:46;6.00;99.90
22145;DHT22;11238;48.730;11.566;2022-09-21T00:40:12;6.00;99.90
22145;DHT22;11238;48.730;11.566;2022-09-21T00:42:38;6.00;99.90
22145;DHT22;11238;48.730;11.566;2022-09-21T00:45:05;6.00;99.90
22145;DHT22;11238;48.730;11.566;2022-09-21T00:47:35;5.90;99.90
22145;DHT22;11238;48.730;11.566;2022-09-21T00:50:05;5.90;99.90
22145;DHT22;11238;48.730;11.566;2022-09-21T00:52:36;5.70;99.90
22145;DHT22;11238;48.730;11.566;2022-09-21T00:55:29;5.80;99.90
22145;DHT22;11238;48.730;11.566;2022-09-21T00:58:03;5.80;99.90
22145;DHT22;11238;48.730;11.566;2022-09-21T01:00:33;5.80;99.90
22145;DHT22;11238;48.730;11.566;2022-09-21T01:02:58;5.80;99.90
22145;DHT22;11238;48.730;11.566;2022-09-21T01:05:27;5.70;99.90
22145;DHT22;11238;48.730;11.566;2022-09-21T01:07:56;5.70;99.90
22145;DHT22;11238;48.730;11.566;2022-09-21T01:10:23;5.70;99.90
22145;DHT22;11238;48.730;11.566;2022-09-21T01:15:41;5.70;99.90
22145;DHT22;11238;48.730;11.566;2022-09-21T01:26:58;5.50;99.90
22145;DHT22;11238;48.730;11.566;2022-09-21T01:35:42;5.50;99.90
22145;DHT22;11238;48.730;11.566;2022-09-21T01:38:24;5.50;99.90
22145;DHT22;11238;48.730;11.566;2022-09-21T01:40:54;5.50;99.90
22145;DHT22;11238;48.730;11.566;2022-09-21T01:43:26;5.40;99.90
22145;DHT22;11238;48.730;11.566;2022-09-21T01:45:56;5.40;99.90
22145;DHT22;11238;48.730;11.566;2022-09-21T01:48:33;5.40;99.90
22145;DHT22;11238;48.730;11.566;2022-09-21T01:51:02;5.40;99.90
22145;DHT22;11238;48.730;11.566;2022-09-21T01:53:39;5.40;99.90
22145;DHT22;11238;48.730;11.566;2022-09-21T01:56:17;5.30;99.90
22145;DHT22;11238;48.730;11.566;2022-09-21T02:01:35;5.10;99.90
22145;DHT22;11238;48.730;11.566;2022-09-21T02:04:21;5.20;99.90
22145;DHT22;11238;48.730;11.566;2022-09-21T02:06:48;5.20;99.90
22145;DHT22;11238;48.730;11.566;2022-09-21T02:09:16;5.20;99.90
22145;DHT22;11238;48.730;11.566;2022-09-21T02:11:42;5.20;99.90
22145;DHT22;11238;48.730;11.566;2022-09-21T02:14:12;5.20;99.90
22145;DHT22;11238;48.730;11.566;2022-09-21T02:25:36;5.20;99.90
22145;DHT22;11238;48.730;11.566;2022-09-21T02:28:22;5.30;99.90
22145;DHT22;11238;48.730;11.566;2022-09-21T02:34:03;5.30;99.90
22145;DHT22;11238;48.730;11.566;2022-09-21T02:36:35;5.20;99.90
22145;DHT22;11238;48.730;11.566;2022-09-21T02:39:16;5.20;99.90
22145;DHT22;11238;48.730;11.566;2022-09-21T02:44:31;5.30;99.90
22145;DHT22;11238;48.730;11.566;2022-09-21T02:47:10;5.30;99.90
22145;DHT22;11238;48.730;11.566;2022-09-21T02:49:42;5.30;99.90
22145;DHT22;11238;48.730;11.566;2022-09-21T02:52:13;5.40;99.90
22145;DHT22;11238;48.730;11.566;2022-09-21T02:54:42;5.40;99.90
22145;DHT22;11238;48.730;11.566;2022-09-21T02:57:09;5.50;99.90
22145;DHT22;11238;48.730;11.566;2022-09-21T02:59:38;5.50;99.90
22145;DHT22;11238;48.730;11.566;2022-09-21T03:02:05;5.50;99.90
22145;DHT22;11238;48.730;11.566;2022-09-21T03:04:32;5.60;99.90
22145;DHT22;11238;48.730;11.566;2022-09-21T03:06:57;5.60;99.90
22145;DHT22;11238;48.730;11.566;2022-09-21T03:09:23;5.60;99.90
22145;DHT22;11238;48.730;11.566;2022-09-21T03:11:50;5.60;99.90
22145;DHT22;11238;48.730;11.566;2022-09-21T03:14:16;5.60;99.90
22145;DHT22;11238;48.730;11.566;2022-09-21T03:16:44;5.70;99.90
22145;DHT22;11238;48.730;11.566;2022-09-21T03:19:10;5.70;99.90
22145;DHT22;11238;48.730;11.566;2022-09-21T03:21:37;5.70;99.90
22145;DHT22;11238;48.730;11.566;2022-09-21T03:24:03;5.70;99.90
22145;DHT22;11238;48.730;11.566;2022-09-21T03:26:29;5.60;99.90
22145;DHT22;11238;48.730;11.566;2022-09-21T03:28:55;5.60;99.90
22145;DHT22;11238;48.730;11.566;2022-09-21T03:31:21;5.60;99.90
22145;DHT22;11238;48.730;11.566;2022-09-21T03:33:47;5.70;99.90
22145;DHT22;11238;48.730;11.566;2022-09-21T03:36:12;5.60;99.90
22145;DHT22;11238;48.730;11.566;2022-09-21T03:38:39;5.60;99.90
22145;DHT22;11238;48.730;11.566;2022-09-21T03:41:05;5.60;99.90
22145;DHT22;11238;48.730;11.566;2022-09-21T03:43:31;5.60;99.90
22145;DHT22;11238;48.730;11.566;2022-09-21T03:45:57;5.60;99.90
22145;DHT22;11238;48.730;11.566;2022-09-21T03:48:23;5.50;99.90
22145;DHT22;11238;48.730;11.566;2022-09-21T03:50:49;5.60;99.90
22145;DHT22;11238;48.730;11.566;2022-09-21T03:53:15;5.60;99.90
22145;DHT22;11238;48.730;11.566;2022-09-21T03:55:42;5.50;99.90
22145;DHT22;11238;48.730;11.566;2022-09-21T03:58:08;5.40;99.90
22145;DHT22;11238;48.730;11.566;2022-09-21T04:00:34;5.50;99.90
22145;DHT22;11238;48.730;11.566;2022-09-21T04:03:00;5.30;99.90
22145;DHT22;11238;48.730;11.566;2022-09-21T04:05:27;5.30;99.90
22145;DHT22;11238;48.730;11.566;2022-09-21T04:07:54;5.30;99.90
22145;DHT22;11238;48.730;11.566;2022-09-21T04:10:21;5.30;99.90
22145;DHT22;11238;48.730;11.566;2022-09-21T04:12:59;5.20;99.90
22145;DHT22;11238;48.730;11.566;2022-09-21T04:15:26;5.20;99.90
22145;DHT22;11238;48.730;11.566;2022-09-21T04:17:52;5.10;99.90
22145;DHT22;11238;48.730;11.566;2022-09-21T04:20:19;5.20;99.90
22145;DHT22;11238;48.730;11.566;2022-09-21T04:22:45;5.30;99.90
22145;DHT22;11238;48.730;11.566;2022-09-21T04:25:13;5.20;99.90
22145;DHT22;11238;48.730;11.566;2022-09-21T04:27:39;5.30;99.90
22145;DHT22;11238;48.730;11.566;2022-09-21T04:30:06;5.30;99.90
22145;DHT22;11238;48.730;11.566;2022-09-21T04:32:32;5.30;99.90
22145;DHT22;11238;48.730;11.566;2022-09-21T04:34:58;5.30;99.90
22145;DHT22;11238;48.730;11.566;2022-09-21T04:37:24;5.40;99.90
22145;DHT22;11238;48.730;11.566;2022-09-21T04:39:49;5.40;99.90
22145;DHT22;11238;48.730;11.566;2022-09-21T04:42:16;5.30;99.90
22145;DHT22;11238;48.730;11.566;2022-09-21T04:44:42;5.40;99.90
22145;DHT22;11238;48.730;11.566;2022-09-21T04:47:07;5.30;99.90
22145;DHT22;11238;48.730;11.566;2022-09-21T04:49:33;5.20;99.90
22145;DHT22;11238;48.730;11.566;2022-09-21T04:51:59;5.30;99.90
22145;DHT22;11238;48.730;11.566;2022-09-21T04:54:25;5.30;99.90
22145;DHT22;11238;48.730;11.566;2022-09-21T04:56:51;5.30;99.90
22145;DHT22;11238;48.730;11.566;2022-09-21T04:59:17;5.30;99.90
22145;DHT22;11238;48.730;11.566;2022-09-21T05:01:43;5.30;99.90
22145;DHT22;11238;48.730;11.566;2022-09-21T05:04:09;5.30;99.90
22145;DHT22;11238;48.730;11.566;2022-09-21T05:06:35;5.30;99.90
22145;DHT22;11238;48.730;11.566;2022-09-21T05:09:00;5.30;99.90
22145;DHT22;11238;48.730;11.566;2022-09-21T05:11:45;5.30;99.90
22145;DHT22;11238;48.730;11.566;2022-09-21T05:14:11;5.30;99.90
22145;DHT22;11238;48.730;11.566;2022-09-21T05:16:37;5.30;99.90
22145;DHT22;11238;48.730;11.566;2022-09-21T05:19:03;5.30;99.90
22145;DHT22;11238;48.730;11.566;2022-09-21T05:21:29;5.30;99.90
22145;DHT22;11238;48.730;11.566;2022-09-21T05:23:58;5.20;99.90
22145;DHT22;11238;48.730;11.566;2022-09-21T05:26:24;5.20;99.90
22145;DHT22;11238;48.730;11.566;2022-09-21T05:28:50;5.20;99.90
22145;DHT22;11238;48.730;11.566;2022-09-21T05:39:18;5.10;99.90
22145;DHT22;11238;48.730;11.566;2022-09-21T05:41:44;5.20;99.90
22145;DHT22;11238;48.730;11.566;2022-09-21T05:44:13;5.20;99.90
22145;DHT22;11238;48.730;11.566;2022-09-21T05:46:57;5.20;99.90
22145;DHT22;11238;48.730;11.566;2022-09-21T05:49:48;5.30;99.90
22145;DHT22;11238;48.730;11.566;2022-09-21T05:52:52;5.40;99.90
22145;DHT22;11238;48.730;11.566;2022-09-21T05:56:03;5.40;99.90
22145;DHT22;11238;48.730;11.566;2022-09-21T05:58:44;5.40;99.90
22145;DHT22;11238;48.730;11.566;2022-09-21T06:03:58;5.40;99.90
22145;DHT22;11238;48.730;11.566;2022-09-21T06:06:24;5.10;99.90
22145;DHT22;11238;48.730;11.566;2022-09-21T06:08:50;5.00;99.90
22145;DHT22;11238;48.730;11.566;2022-09-21T06:11:16;4.90;99.90
22145;DHT22;11238;48.730;11.566;2022-09-21T06:13:42;5.00;99.90
22145;DHT22;11238;48.730;11.566;2022-09-21T06:16:08;5.00;99.90
22145;DHT22;11238;48.730;11.566;2022-09-21T06:18:38;5.10;99.90
22145;DHT22;11238;48.730;11.566;2022-09-21T06:21:06;5.20;99.90
22145;DHT22;11238;48.730;11.566;2022-09-21T06:23:31;5.20;99.90
22145;DHT22;11238;48.730;11.566;2022-09-21T06:25:57;5.30;99.90
22145;DHT22;11238;48.730;11.566;2022-09-21T06:28:23;5.40;99.90
22145;DHT22;11238;48.730;11.566;2022-09-21T06:30:50;5.40;99.90
22145;DHT22;11238;48.730;11.566;2022-09-21T06:33:16;5.40;99.90
22145;DHT22;11238;48.730;11.566;2022-09-21T06:35:53;5.50;99.90
22145;DHT22;11238;48.730;11.566;2022-09-21T06:38:20;5.60;99.90
22145;DHT22;11238;48.730;11.566;2022-09-21T06:40:46;5.60;99.90
22145;DHT22;11238;48.730;11.566;2022-09-21T06:43:12;5.70;99.90
22145;DHT22;11238;48.730;11.566;2022-09-21T06:45:38;5.70;99.90
22145;DHT22;11238;48.730;11.566;2022-09-21T06:48:04;5.80;99.90
22145;DHT22;11238;48.730;11.566;2022-09-21T06:50:29;5.90;99.90
22145;DHT22;11238;48.730;11.566;2022-09-21T06:52:59;5.90;99.90
22145;DHT22;11238;48.730;11.566;2022-09-21T06:55:25;6.00;99.90
22145;DHT22;11238;48.730;11.566;2022-09-21T06:57:50;6.10;99.90
22145;DHT22;11238;48.730;11.566;2022-09-21T07:00:16;6.20;99.90
22145;DHT22;11238;48.730;11.566;2022-09-21T07:02:43;6.20;99.90
22145;DHT22;11238;48.730;11.566;2022-09-21T07:05:10;6.30;99.90
22145;DHT22;11238;48.730;11.566;2022-09-21T07:07:36;6.30;99.90
22145;DHT22;11238;48.730;11.566;2022-09-21T07:10:02;6.40;99.90
22145;DHT22;11238;48.730;11.566;2022-09-21T07:12:28;6.40;99.90
22145;DHT22;11238;48.730;11.566;2022-09-21T07:14:55;6.50;99.90
22145;DHT22;11238;48.730;11.566;2022-09-21T07:17:21;6.50;99.90
22145;DHT22;11238;48.730;11.566;2022-09-21T07:19:46;6.60;99.90
22145;DHT22;11238;48.730;11.566;2022-09-21T07:22:12;6.50;99.90
22145;DHT22;11238;48.730;11.566;2022-09-21T07:24:38;6.60;99.90
22145;DHT22;11238;48.730;11.566;2022-09-21T07:27:03;6.80;99.90
22145;DHT22;11238;48.730;11.566;2022-09-21T07:29:29;6.90;99.90
22145;DHT22;11238;48.730;11.566;2022-09-21T07:31:55;7.00;99.90
22145;DHT22;11238;48.730;11.566;2022-09-21T07:34:21;7.10;99.90
22145;DHT22;11238;48.730;11.566;2022-09-21T07:36:47;7.10;99.90
22145;DHT22;11238;48.730;11.566;2022-09-21T07:39:12;7.20;99.90
22145;DHT22;11238;48.730;11.566;2022-09-21T07:41:38;7.30;99.90
22145;DHT22;11238;48.730;11.566;2022-09-21T07:44:04;7.40;99.90
22145;DHT22;11238;48.730;11.566;2022-09-21T07:46:30;7.40;99.90
22145;DHT22;11238;48.730;11.566;2022-09-21T07:48:56;7.40;99.90
22145;DHT22;11238;48.730;11.566;2022-09-21T07:51:24;7.50;99.90
22145;DHT22;11238;48.730;11.566;2022-09-21T07:53:54;7.60;99.90
22145;DHT22;11238;48.730;11.566;2022-09-21T07:56:23;7.70;99.90
22145;DHT22;11238;48.730;11.566;2022-09-21T07:58:49;7.90;99.90
22145;DHT22;11238;48.730;11.566;2022-09-21T08:01:41;8.00;99.90
22145;DHT22;11238;48.730;11.566;2022-09-21T08:04:08;8.10;99.90
22145;DHT22;11238;48.730;11.566;2022-09-21T08:06:35;8.20;99.90
22145;DHT22;11238;48.730;11.566;2022-09-21T08:09:05;8.20;99.90
22145;DHT22;11238;48.730;11.566;2022-09-21T08:11:32;8.40;99.90
22145;DHT22;11238;48.730;11.566;2022-09-21T08:14:00;8.60;99.90
22145;DHT22;11238;48.730;11.566;2022-09-21T08:16:27;8.70;99.90
22145;DHT22;11238;48.730;11.566;2022-09-21T08:18:53;8.80;99.90
22145;DHT22;11238;48.730;11.566;2022-09-21T08:21:20;8.80;99.90
22145;DHT22;11238;48.730;11.566;2022-09-21T08:23:47;8.90;99.90
22145;DHT22;11238;48.730;11.566;2022-09-21T08:26:16;9.10;99.90
22145;DHT22;11238;48.730;11.566;2022-09-21T08:28:50;9.10;99.90
22145;DHT22;11238;48.730;11.566;2022-09-21T08:31:18;9.20;99.90
22145;DHT22;11238;48.730;11.566;2022-09-21T08:33:45;9.30;99.90
22145;DHT22;11238;48.730;11.566;2022-09-21T08:36:11;9.40;99.90
22145;DHT22;11238;48.730;11.566;2022-09-21T08:38:37;9.50;99.90
22145;DHT22;11238;48.730;11.566;2022-09-21T08:41:28;9.60;99.90
22145;DHT22;11238;48.730;11.566;2022-09-21T08:44:12;9.70;99.90
22145;DHT22;11238;48.730;11.566;2022-09-21T08:46:40;9.90;99.90
22145;DHT22;11238;48.730;11.566;2022-09-21T08:49:19;10.00;99.90
22145;DHT22;11238;48.730;11.566;2022-09-21T08:51:59;10.10;99.90
22145;DHT22;11238;48.730;11.566;2022-09-21T08:54:43;10.30;99.90
22145;DHT22;11238;48.730;11.566;2022-09-21T08:57:12;10.40;99.90
22145;DHT22;11238;48.730;11.566;2022-09-21T08:59:44;10.50;99.90
22145;DHT22;11238;48.730;11.566;2022-09-21T09:05:05;10.80;99.90
22145;DHT22;11238;48.730;11.566;2022-09-21T09:19:07;11.60;99.90
22145;DHT22;11238;48.730;11.566;2022-09-21T09:21:40;11.70;99.90
22145;DHT22;11238;48.730;11.566;2022-09-21T09:24:25;11.90;99.90
22145;DHT22;11238;48.730;11.566;2022-09-21T09:26:59;12.10;99.90
22145;DHT22;11238;48.730;11.566;2022-09-21T09:32:16;12.30;99.90
22145;DHT22;11238;48.730;11.566;2022-09-21T09:34:54;12.50;99.90
22145;DHT22;11238;48.730;11.566;2022-09-21T09:37:28;12.60;99.90
22145;DHT22;11238;48.730;11.566;2022-09-21T09:39:56;12.90;99.90
22145;DHT22;11238;48.730;11.566;2022-09-21T09:42:39;13.00;99.90
22145;DHT22;11238;48.730;11.566;2022-09-21T09:45:27;13.10;99.90
22145;DHT22;11238;48.730;11.566;2022-09-21T09:48:18;13.30;99.90
22145;DHT22;11238;48.730;11.566;2022-09-21T09:50:47;13.50;99.90
22145;DHT22;11238;48.730;11.566;2022-09-21T09:53:18;13.60;99.90
22145;DHT22;11238;48.730;11.566;2022-09-21T09:55:48;13.80;99.90
22145;DHT22;11238;48.730;11.566;2022-09-21T09:58:20;14.00;99.90
22145;DHT22;11238;48.730;11.566;2022-09-21T10:00:50;14.20;99.90
22145;DHT22;11238;48.730;11.566;2022-09-21T10:03:19;14.40;99.90
22145;DHT22;11238;48.730;11.566;2022-09-21T10:05:46;14.30;99.90
22145;DHT22;11238;48.730;11.566;2022-09-21T10:08:44;14.60;99.90
22145;DHT22;11238;48.730;11.566;2022-09-21T10:11:14;14.70;99.90
22145;DHT22;11238;48.730;11.566;2022-09-21T10:13:42;14.70;99.90
22145;DHT22;11238;48.730;11.566;2022-09-21T10:18:38;15.10;99.90
22145;DHT22;11238;48.730;11.566;2022-09-21T10:23:51;15.30;99.90
22145;DHT22;11238;48.730;11.566;2022-09-21T10:26:18;15.50;99.90
22145;DHT22;11238;48.730;11.566;2022-09-21T10:28:56;15.60;99.70
22145;DHT22;11238;48.730;11.566;2022-09-21T10:31:27;15.50;98.80
22145;DHT22;11238;48.730;11.566;2022-09-21T10:34:05;15.60;99.90
22145;DHT22;11238;48.730;11.566;2022-09-21T10:36:34;15.50;98.10
22145;DHT22;11238;48.730;11.566;2022-09-21T10:41:53;15.50;97.50
22145;DHT22;11238;48.730;11.566;2022-09-21T10:44:22;15.70;98.60
22145;DHT22;11238;48.730;11.566;2022-09-21T10:46:50;15.90;97.50
22145;DHT22;11238;48.730;11.566;2022-09-21T10:49:25;16.10;97.50
22145;DHT22;11238;48.730;11.566;2022-09-21T10:51:58;16.20;96.10
22145;DHT22;11238;48.730;11.566;2022-09-21T10:54:29;16.30;96.70
22145;DHT22;11238;48.730;11.566;2022-09-21T10:57:06;16.30;94.70
22145;DHT22;11238;48.730;11.566;2022-09-21T10:59:35;16.20;94.50
22145;DHT22;11238;48.730;11.566;2022-09-21T11:02:42;16.20;94.10
22145;DHT22;11238;48.730;11.566;2022-09-21T11:05:21;16.40;94.80
22145;DHT22;11238;48.730;11.566;2022-09-21T11:07:52;16.50;93.90
22145;DHT22;11238;48.730;11.566;2022-09-21T11:10:25;16.20;93.20
22145;DHT22;11238;48.730;11.566;2022-09-21T11:16:00;16.50;94.10
22145;DHT22;11238;48.730;11.566;2022-09-21T11:18:51;16.70;94.20
22145;DHT22;11238;48.730;11.566;2022-09-21T11:27:19;16.70;90.80
22145;DHT22;11238;48.730;11.566;2022-09-21T11:29:54;16.90;90.10
22145;DHT22;11238;48.730;11.566;2022-09-21T11:35:42;17.20;90.30
22145;DHT22;11238;48.730;11.566;2022-09-21T11:38:20;17.50;89.70
22145;DHT22;11238;48.730;11.566;2022-09-21T11:41:20;17.70;86.90
22145;DHT22;11238;48.730;11.566;2022-09-21T11:49:36;17.90;81.90
22145;DHT22;11238;48.730;11.566;2022-09-21T11:57:07;17.90;82.20
22145;DHT22;11238;48.730;11.566;2022-09-21T12:07:57;18.80;79.00
22145;DHT22;11238;48.730;11.566;2022-09-21T12:10:38;19.00;79.50
22145;DHT22;11238;48.730;11.566;2022-09-21T12:13:57;19.00;76.50
22145;DHT22;11238;48.730;11.566;2022-09-21T12:16:37;18.90;76.50
22145;DHT22;11238;48.730;11.566;2022-09-21T12:19:37;19.00;72.60
22145;DHT22;11238;48.730;11.566;2022-09-21T12:25:30;18.70;71.90
22145;DHT22;11238;48.730;11.566;2022-09-21T12:30:52;19.20;73.00
22145;DHT22;11238;48.730;11.566;2022-09-21T12:33:36;19.20;71.70
22145;DHT22;11238;48.730;11.566;2022-09-21T12:36:19;19.30;70.80
22145;DHT22;11238;48.730;11.566;2022-09-21T12:38:53;19.20;72.50
22145;DHT22;11238;48.730;11.566;2022-09-21T12:44:46;18.40;70.10
22145;DHT22;11238;48.730;11.566;2022-09-21T12:50:26;18.70;69.40
22145;DHT22;11238;48.730;11.566;2022-09-21T12:52:53;18.80;71.90
22145;DHT22;11238;48.730;11.566;2022-09-21T12:58:27;18.70;70.10
22145;DHT22;11238;48.730;11.566;2022-09-21T13:01:11;18.80;71.80
22145;DHT22;11238;48.730;11.566;2022-09-21T13:07:08;19.20;71.50
22145;DHT22;11238;48.730;11.566;2022-09-21T13:09:41;19.20;70.40
22145;DHT22;11238;48.730;11.566;2022-09-21T13:13:00;19.30;69.80
22145;DHT22;11238;48.730;11.566;2022-09-21T13:15:30;19.30;67.60
22145;DHT22;11238;48.730;11.566;2022-09-21T13:17:59;19.40;70.20
22145;DHT22;11238;48.730;11.566;2022-09-21T13:20:26;19.60;69.40
22145;DHT22;11238;48.730;11.566;2022-09-21T13:22:58;19.70;70.10
22145;DHT22;11238;48.730;11.566;2022-09-21T13:25:28;19.80;70.30
22145;DHT22;11238;48.730;11.566;2022-09-21T13:30:42;19.20;71.60
22145;DHT22;11238;48.730;11.566;2022-09-21T13:38:22;19.60;67.70
22145;DHT22;11238;48.730;11.566;2022-09-21T13:40:56;19.80;68.00
22145;DHT22;11238;48.730;11.566;2022-09-21T13:43:24;19.90;66.00
22145;DHT22;11238;48.730;11.566;2022-09-21T13:48:58;19.40;65.30
22145;DHT22;11238;48.730;11.566;2022-09-21T13:51:24;19.40;66.20
22145;DHT22;11238;48.730;11.566;2022-09-21T13:53:54;19.60;62.50
22145;DHT22;11238;48.730;11.566;2022-09-21T13:56:24;19.90;64.70
22145;DHT22;11238;48.730;11.566;2022-09-21T13:58:53;19.30;59.70
22145;DHT22;11238;48.730;11.566;2022-09-21T14:01:24;19.40;67.30
22145;DHT22;11238;48.730;11.566;2022-09-21T14:04:02;19.70;62.90
22145;DHT22;11238;48.730;11.566;2022-09-21T14:06:34;19.90;64.90
22145;DHT22;11238;48.730;11.566;2022-09-21T14:09:18;20.30;61.70
22145;DHT22;11238;48.730;11.566;2022-09-21T14:11:59;20.40;58.60
22145;DHT22;11238;48.730;11.566;2022-09-21T14:14:30;19.20;59.10
22145;DHT22;11238;48.730;11.566;2022-09-21T14:17:02;19.40;64.60
22145;DHT22;11238;48.730;11.566;2022-09-21T14:24:38;19.00;64.70
22145;DHT22;11238;48.730;11.566;2022-09-21T14:27:26;19.20;64.70
22145;DHT22;11238;48.730;11.566;2022-09-21T14:29:57;19.10;65.40
22145;DHT22;11238;48.730;11.566;2022-09-21T14:32:28;19.20;64.40
22145;DHT22;11238;48.730;11.566;2022-09-21T14:35:00;18.90;62.90
22145;DHT22;11238;48.730;11.566;2022-09-21T14:38:03;18.70;65.50
22145;DHT22;11238;48.730;11.566;2022-09-21T14:40:37;18.60;69.00
22145;DHT22;11238;48.730;11.566;2022-09-21T14:43:28;18.40;68.50
22145;DHT22;11238;48.730;11.566;2022-09-21T14:46:22;18.20;69.50
22145;DHT22;11238;48.730;11.566;2022-09-21T14:51:58;18.20;68.40
22145;DHT22;11238;48.730;11.566;2022-09-21T14:54:36;18.00;68.10
22145;DHT22;11238;48.730;11.566;2022-09-21T15:00:21;17.90;69.40
22145;DHT22;11238;48.730;11.566;2022-09-21T15:05:41;18.00;68.70
22145;DHT22;11238;48.730;11.566;2022-09-21T15:11:25;17.90;67.90
22145;DHT22;11238;48.730;11.566;2022-09-21T15:14:31;17.90;68.70
22145;DHT22;11238;48.730;11.566;2022-09-21T15:16:59;17.70;67.30
22145;DHT22;11238;48.730;11.566;2022-09-21T15:19:27;17.60;68.70
22145;DHT22;11238;48.730;11.566;2022-09-21T15:24:52;17.30;69.30
22145;DHT22;11238;48.730;11.566;2022-09-21T15:27:20;17.20;69.80
22145;DHT22;11238;48.730;11.566;2022-09-21T15:29:48;17.20;70.80
22145;DHT22;11238;48.730;11.566;2022-09-21T15:32:32;17.00;70.30
22145;DHT22;11238;48.730;11.566;2022-09-21T15:35:00;16.80;70.20
22145;DHT22;11238;48.730;11.566;2022-09-21T15:37:27;16.60;68.80
22145;DHT22;11238;48.730;11.566;2022-09-21T15:40:05;16.50;70.40
22145;DHT22;11238;48.730;11.566;2022-09-21T15:42:35;16.40;70.80
22145;DHT22;11238;48.730;11.566;2022-09-21T15:45:17;16.30;72.10
22145;DHT22;11238;48.730;11.566;2022-09-21T15:47:43;16.30;71.60
22145;DHT22;11238;48.730;11.566;2022-09-21T15:50:15;16.20;72.40
22145;DHT22;11238;48.730;11.566;2022-09-21T15:52:47;16.20;74.60
22145;DHT22;11238;48.730;11.566;2022-09-21T15:55:17;16.10;73.10
22145;DHT22;11238;48.730;11.566;2022-09-21T15:57:51;16.00;71.40
22145;DHT22;11238;48.730;11.566;2022-09-21T16:00:23;15.90;72.10
22145;DHT22;11238;48.730;11.566;2022-09-21T16:03:20;15.80;72.30
22145;DHT22;11238;48.730;11.566;2022-09-21T16:05:49;15.70;73.10
22145;DHT22;11238;48.730;11.566;2022-09-21T16:08:29;15.60;73.20
22145;DHT22;11238;48.730;11.566;2022-09-21T16:13:36;15.40;74.90
22145;DHT22;11238;48.730;11.566;2022-09-21T16:16:20;15.40;74.90
22145;DHT22;11238;48.730;11.566;2022-09-21T16:18:48;15.20;73.50
22145;DHT22;11238;48.730;11.566;2022-09-21T16:21:22;15.20;74.00
22145;DHT22;11238;48.730;11.566;2022-09-21T16:23:50;15.10;74.40
22145;DHT22;11238;48.730;11.566;2022-09-21T16:31:34;14.90;76.30
22145;DHT22;11238;48.730;11.566;2022-09-21T16:34:30;14.80;76.60
22145;DHT22;11238;48.730;11.566;2022-09-21T16:37:02;14.80;77.40
22145;DHT22;11238;48.730;11.566;2022-09-21T16:39:56;14.80;77.10
22145;DHT22;11238;48.730;11.566;2022-09-21T16:42:23;14.80;77.80
22145;DHT22;11238;48.730;11.566;2022-09-21T16:44:51;14.70;78.10
22145;DHT22;11238;48.730;11.566;2022-09-21T16:47:24;14.70;77.60
22145;DHT22;11238;48.730;11.566;2022-09-21T16:49:52;14.70;78.20
22145;DHT22;11238;48.730;11.566;2022-09-21T16:52:20;14.60;79.20
22145;DHT22;11238;48.730;11.566;2022-09-21T16:54:46;14.60;79.60
22145;DHT22;11238;48.730;11.566;2022-09-21T16:57:15;14.50;80.40
22145;DHT22;11238;48.730;11.566;2022-09-21T16:59:40;14.50;80.70
22145;DHT22;11238;48.730;11.566;2022-09-21T17:02:09;14.50;80.40
22145;DHT22;11238;48.730;11.566;2022-09-21T17:04:35;14.40;81.50
22145;DHT22;11238;48.730;11.566;2022-09-21T17:07:01;14.20;82.00
22145;DHT22;11238;48.730;11.566;2022-09-21T17:09:35;14.00;82.70
22145;DHT22;11238;48.730;11.566;2022-09-21T17:12:05;13.90;84.60
22145;DHT22;11238;48.730;11.566;2022-09-21T17:14:33;13.90;84.20
22145;DHT22;11238;48.730;11.566;2022-09-21T17:17:32;13.70;84.60
22145;DHT22;11238;48.730;11.566;2022-09-21T17:20:01;13.60;86.40
22145;DHT22;11238;48.730;11.566;2022-09-21T17:22:31;13.50;87.40
22145;DHT22;11238;48.730;11.566;2022-09-21T17:24:57;13.50;87.70
22145;DHT22;11238;48.730;11.566;2022-09-21T17:27:24;13.40;88.20
22145;DHT22;11238;48.730;11.566;2022-09-21T17:29:51;13.40;88.40
22145;DHT22;11238;48.730;11.566;2022-09-21T17:32:20;13.40;88.90
22145;DHT22;11238;48.730;11.566;2022-09-21T17:34:59;13.20;88.90
22145;DHT22;11238;48.730;11.566;2022-09-21T17:37:26;13.00;89.10
22145;DHT22;11238;48.730;11.566;2022-09-21T17:39:52;12.90;90.30
22145;DHT22;11238;48.730;11.566;2022-09-21T17:42:20;12.80;90.40
22145;DHT22;11238;48.730;11.566;2022-09-21T17:45:14;12.70;90.50
22145;DHT22;11238;48.730;11.566;2022-09-21T17:47:41;12.60;90.60
22145;DHT22;11238;48.730;11.566;2022-09-21T17:52:41;12.40;90.60
22145;DHT22;11238;48.730;11.566;2022-09-21T17:55:26;12.40;90.50
22145;DHT22;11238;48.730;11.566;2022-09-21T18:00:50;12.30;90.60
22145;DHT22;11238;48.730;11.566;2022-09-21T18:03:22;12.30;91.10
22145;DHT22;11238;48.730;11.566;2022-09-21T18:05:51;12.20;91.10
22145;DHT22;11238;48.730;11.566;2022-09-21T18:08:32;12.20;91.10
22145;DHT22;11238;48.730;11.566;2022-09-21T18:11:40;12.10;91.40
22145;DHT22;11238;48.730;11.566;2022-09-21T18:20:35;11.90;91.50
22145;DHT22;11238;48.730;11.566;2022-09-21T18:23:35;11.80;91.40
22145;DHT22;11238;48.730;11.566;2022-09-21T18:26:03;11.70;91.80
22145;DHT22;11238;48.730;11.566;2022-09-21T18:28:38;11.70;91.60
22145;DHT22;11238;48.730;11.566;2022-09-21T18:34:09;11.60;91.90
22145;DHT22;11238;48.730;11.566;2022-09-21T18:39:24;11.50;92.30
22145;DHT22;11238;48.730;11.566;2022-09-21T18:42:08;11.40;92.80
22145;DHT22;11238;48.730;11.566;2022-09-21T18:44:48;11.40;92.80
22145;DHT22;11238;48.730;11.566;2022-09-21T18:47:25;11.40;93.40
22145;DHT22;11238;48.730;11.566;2022-09-21T18:50:00;11.40;94.40